createdAt,value
2022-07-30T00:01:18.314Z,147749.56
2022-07-30T00:03:45.506Z,147774.03
2022-07-30T00:06:12.724Z,147727.53
2022-07-30T00:08:39.797Z,147717.78
2022-07-30T00:11:06.979Z,147717.78
2022-07-30T00:13:34.098Z,147693.31
2022-07-30T00:16:01.150Z,147685.97
2022-07-30T00:18:28.205Z,147710.44
2022-07-30T00:20:55.252Z,147688.44
2022-07-30T00:23:23.572Z,147722.66
2022-07-30T00:25:50.659Z,147703.06
2022-07-30T00:28:17.674Z,147654.19
2022-07-30T00:30:44.747Z,147620.00
2022-07-30T00:33:11.863Z,147605.34
2022-07-30T00:35:39.692Z,147595.59
2022-07-30T00:38:06.745Z,147588.22
2022-07-30T00:40:33.940Z,147587.03
2022-07-30T00:43:01.000Z,147560.16
2022-07-30T00:45:28.184Z,147546.69
2022-07-30T00:47:55.343Z,147540.63
2022-07-30T00:50:22.379Z,147514.94
2022-07-30T00:52:49.542Z,147475.84
2022-07-30T00:55:16.708Z,147490.53
2022-07-30T00:57:44.653Z,147469.69
2022-07-30T01:00:15.195Z,147450.19
2022-07-30T01:02:42.383Z,147429.41
2022-07-30T01:05:10.083Z,147412.34
2022-07-30T01:07:37.536Z,147376.91
2022-07-30T01:10:06.843Z,147405.00
2022-07-30T01:12:34.094Z,147373.25
2022-07-30T01:15:04.869Z,147372.03
2022-07-30T01:17:32.694Z,147275.59
2022-07-30T01:20:04.286Z,147337.81
2022-07-30T01:22:48.270Z,147361.03
2022-07-30T01:25:21.166Z,147361.03
2022-07-30T01:28:03.134Z,147347.63
2022-07-30T01:30:34.844Z,147375.72
2022-07-30T01:33:04.634Z,147373.25
2022-07-30T01:35:33.733Z,147315.88
2022-07-30T01:38:03.985Z,147337.81
2022-07-30T01:40:32.148Z,147321.97
2022-07-30T01:43:03.078Z,147309.75
2022-07-30T01:45:35.671Z,147300.00
2022-07-30T01:48:11.017Z,147241.34
2022-07-30T01:50:42.584Z,147273.13
2022-07-30T01:53:15.520Z,147258.50
2022-07-30T01:55:43.813Z,147199.84
2022-07-30T01:58:13.324Z,147256.06
2022-07-30T02:00:43.550Z,147213.28
2022-07-30T02:03:11.500Z,147207.19
2022-07-30T02:05:42.824Z,147197.44
2022-07-30T02:08:18.585Z,147207.19
2022-07-30T02:10:52.689Z,147114.47
2022-07-30T02:13:26.902Z,147210.88
2022-07-30T02:15:59.558Z,147206.00
2022-07-30T02:18:39.653Z,147210.88
2022-07-30T02:21:10.162Z,147209.63
2022-07-30T02:23:43.725Z,147203.53
2022-07-30T02:26:18.517Z,147138.84
2022-07-30T02:28:49.697Z,147173.00
2022-07-30T02:31:20.918Z,147153.50
2022-07-30T02:33:50.270Z,147124.22
2022-07-30T02:36:19.180Z,147127.91
2022-07-30T02:38:50.635Z,147069.31
2022-07-30T02:41:22.093Z,147130.31
2022-07-30T02:43:51.570Z,147140.06
2022-07-30T02:46:22.718Z,147116.88
2022-07-30T02:49:11.759Z,147113.22
2022-07-30T02:51:42.133Z,147102.25
2022-07-30T02:54:10.328Z,147077.88
2022-07-30T02:56:42.293Z,147064.44
2022-07-30T02:59:11.568Z,147068.06
2022-07-30T03:01:39.180Z,147051.03
2022-07-30T03:04:08.490Z,147031.47
2022-07-30T03:06:36.317Z,147021.72
2022-07-30T03:09:04.529Z,146942.41
2022-07-30T03:11:33.036Z,146980.22
2022-07-30T03:14:01.457Z,146992.47
2022-07-30T03:16:30.661Z,146987.59
2022-07-30T03:19:02.273Z,146975.34
2022-07-30T03:21:35.624Z,146979.00
2022-07-30T03:24:05.013Z,146964.38
2022-07-30T03:26:34.855Z,146966.78
2022-07-30T03:29:03.098Z,146919.25
2022-07-30T03:31:36.392Z,146918.03
2022-07-30T03:34:09.071Z,146890.00
2022-07-30T03:36:38.360Z,146875.34
2022-07-30T03:39:07.110Z,146924.13
2022-07-30T03:41:36.314Z,146926.59
2022-07-30T03:44:07.720Z,146833.88
2022-07-30T03:46:39.027Z,146920.47
2022-07-30T03:49:06.762Z,146896.09
2022-07-30T03:51:34.707Z,146887.53
2022-07-30T03:54:02.900Z,146892.41
2022-07-30T03:56:39.482Z,146876.59
2022-07-30T03:59:10.304Z,146790.03
2022-07-30T04:01:40.894Z,146848.56
2022-07-30T04:04:15.851Z,146858.31
2022-07-30T04:06:43.208Z,146852.16
2022-07-30T04:09:12.340Z,146865.59
2022-07-30T04:11:40.823Z,146865.59
2022-07-30T04:14:10.839Z,146838.75
2022-07-30T04:16:59.470Z,146826.59
2022-07-30T04:19:39.317Z,146824.13
2022-07-30T04:22:08.661Z,146838.75
2022-07-30T04:24:39.354Z,146799.78
2022-07-30T04:27:06.840Z,146813.19
2022-07-30T04:29:34.712Z,146844.88
2022-07-30T04:32:02.313Z,146833.88
2022-07-30T04:35:04.945Z,146799.78
2022-07-30T04:37:54.849Z,146819.25
2022-07-30T04:40:22.060Z,146816.84
2022-07-30T04:42:49.458Z,146833.88
2022-07-30T04:45:20.054Z,146819.25
2022-07-30T04:47:53.707Z,146843.63
2022-07-30T04:50:26.211Z,146825.34
2022-07-30T04:52:55.944Z,146853.44
2022-07-30T04:55:29.008Z,146854.63
2022-07-30T04:57:57.414Z,146855.84
2022-07-30T05:00:24.541Z,146872.91
2022-07-30T05:02:55.118Z,146876.59
2022-07-30T05:05:24.194Z,146944.88
2022-07-30T05:07:52.420Z,146853.44
2022-07-30T05:10:19.907Z,146899.75
2022-07-30T05:12:47.065Z,146921.72
2022-07-30T05:15:17.430Z,146980.22
2022-07-30T05:17:45.162Z,146981.47
2022-07-30T05:20:14.223Z,147003.44
2022-07-30T05:23:00.400Z,146988.81
2022-07-30T05:25:27.588Z,147032.72
2022-07-30T05:28:01.408Z,147015.66
2022-07-30T05:30:29.261Z,147063.19
2022-07-30T05:32:59.145Z,147112.00
2022-07-30T05:35:31.500Z,147110.81
2022-07-30T05:38:01.782Z,147112.00
2022-07-30T05:40:34.767Z,147119.34
2022-07-30T05:43:24.396Z,147148.63
2022-07-30T05:45:51.458Z,147191.31
2022-07-30T05:48:18.634Z,147165.72
2022-07-30T05:50:45.689Z,147163.25
2022-07-30T05:53:12.701Z,147194.97
2022-07-30T05:55:58.740Z,147234.06
2022-07-30T05:58:53.270Z,147273.13
2022-07-30T06:01:32.433Z,147301.19
2022-07-30T06:04:04.998Z,147320.78
2022-07-30T06:06:54.809Z,147356.13
2022-07-30T06:09:36.945Z,147405.00
2022-07-30T06:12:05.339Z,147414.75
2022-07-30T06:14:32.643Z,147453.84
2022-07-30T06:17:00.492Z,147488.03
2022-07-30T06:19:34.894Z,147492.94
2022-07-30T06:22:06.160Z,147470.91
2022-07-30T06:24:39.327Z,147573.59
2022-07-30T06:27:21.900Z,147643.22
2022-07-30T06:29:48.941Z,147622.47
2022-07-30T06:32:17.292Z,147646.88
2022-07-30T06:34:44.333Z,147573.59
2022-07-30T06:37:11.593Z,147627.34
2022-07-30T06:39:58.020Z,147633.44
2022-07-30T06:42:39.742Z,147715.31
2022-07-30T06:45:30.615Z,147749.56
2022-07-30T06:48:14.550Z,147700.66
2022-07-30T06:50:42.488Z,147808.22
2022-07-30T06:53:09.758Z,147780.13
2022-07-30T06:55:58.486Z,147776.44
2022-07-30T06:58:32.192Z,147882.78
2022-07-30T07:01:23.450Z,147865.72
2022-07-30T07:03:50.745Z,147939.09
2022-07-30T07:06:18.481Z,147965.97
2022-07-30T07:08:45.553Z,147989.25
2022-07-30T07:11:16.256Z,148013.69
2022-07-30T07:13:54.137Z,148035.72
2022-07-30T07:16:31.824Z,148094.38
2022-07-30T07:19:02.428Z,148116.41
2022-07-30T07:21:29.714Z,148090.75
2022-07-30T07:23:56.874Z,148072.41
2022-07-30T07:26:51.275Z,148134.75
2022-07-30T07:29:18.523Z,148101.75
2022-07-30T07:32:06.962Z,148140.91
2022-07-30T07:34:32.764Z,148176.41
2022-07-30T07:37:00.152Z,148197.22
2022-07-30T07:39:27.468Z,148233.91
2022-07-30T07:41:55.400Z,148240.03
2022-07-30T07:44:25.088Z,148238.81
2022-07-30T07:46:52.311Z,148189.84
2022-07-30T07:49:20.573Z,148194.75
2022-07-30T07:51:50.749Z,148259.59
2022-07-30T07:54:22.529Z,148282.84
2022-07-30T07:56:57.524Z,148352.69
2022-07-30T07:59:41.047Z,148314.66
2022-07-30T08:02:26.478Z,148282.84
2022-07-30T08:05:02.097Z,148344.06
2022-07-30T08:07:42.706Z,148382.03
2022-07-30T08:10:16.154Z,148397.97
2022-07-30T08:12:49.529Z,148451.81
2022-07-30T08:15:31.525Z,148437.13
2022-07-30T08:18:24.480Z,148500.78
2022-07-30T08:21:15.481Z,148562.06
2022-07-30T08:23:42.772Z,148664.97
2022-07-30T08:26:10.141Z,148720.06
2022-07-30T08:28:37.269Z,148718.81
2022-07-30T08:31:07.026Z,148728.72
2022-07-30T08:33:34.708Z,148711.50
2022-07-30T08:36:04.109Z,148731.13
2022-07-30T08:38:36.891Z,148767.88
2022-07-30T08:41:04.134Z,148760.50
2022-07-30T08:43:31.783Z,148698.03
2022-07-30T08:46:00.416Z,148713.94
2022-07-30T08:48:52.171Z,148696.81
2022-07-30T08:51:20.652Z,148799.75
2022-07-30T08:54:06.614Z,148935.84
2022-07-30T08:56:34.771Z,148968.94
2022-07-30T08:59:02.687Z,148863.47
2022-07-30T09:01:29.757Z,149015.50
2022-07-30T09:03:57.707Z,148973.81
2022-07-30T09:06:27.448Z,148883.06
2022-07-30T09:08:54.661Z,148892.88
2022-07-30T09:11:22.669Z,148792.38
2022-07-30T09:13:50.879Z,148750.72
2022-07-30T09:16:23.363Z,148744.63
2022-07-30T09:19:00.126Z,148895.34
2022-07-30T09:21:29.164Z,148978.72
2022-07-30T09:24:28.388Z,148959.13
2022-07-30T09:27:13.981Z,148983.63
2022-07-30T09:29:59.710Z,148950.53
2022-07-30T09:32:57.594Z,148895.34
2022-07-30T09:35:43.420Z,148890.44
2022-07-30T09:38:11.425Z,148937.06
2022-07-30T09:41:17.258Z,148885.53
2022-07-30T09:44:08.087Z,148932.16
2022-07-30T09:46:42.606Z,148875.75
2022-07-30T09:49:18.683Z,148962.75
2022-07-30T09:51:56.663Z,149049.81
2022-07-30T09:54:51.187Z,149040.00
2022-07-30T09:57:26.370Z,149049.81
2022-07-30T10:00:01.160Z,149128.31
2022-07-30T10:02:33.059Z,149141.81
2022-07-30T10:05:20.342Z,149128.31
2022-07-30T10:07:52.330Z,149118.50
2022-07-30T10:10:25.762Z,149130.78
2022-07-30T10:12:58.298Z,149003.22
2022-07-30T10:15:30.129Z,148954.22
2022-07-30T10:18:00.478Z,148927.25
2022-07-30T10:20:47.389Z,148841.41
2022-07-30T10:23:34.537Z,148873.28
2022-07-30T10:26:23.471Z,148932.16
2022-07-30T10:29:09.233Z,149058.38
2022-07-30T10:31:48.942Z,149133.25
2022-07-30T10:34:19.229Z,149249.75
2022-07-30T10:36:54.866Z,149324.63
2022-07-30T10:39:27.524Z,149379.81
2022-07-30T10:42:34.269Z,149263.31
2022-07-30T10:45:19.707Z,149217.88
2022-07-30T10:47:49.032Z,149151.66
2022-07-30T10:50:22.467Z,149111.19
2022-07-30T10:52:50.733Z,149047.38
2022-07-30T10:55:37.166Z,149059.66
2022-07-30T10:58:12.216Z,149052.28
2022-07-30T11:00:51.652Z,149167.59
2022-07-30T11:03:41.390Z,149319.72
2022-07-30T11:06:15.468Z,149329.53
2022-07-30T11:08:48.505Z,149354.09
2022-07-30T11:11:59.505Z,149374.91
2022-07-30T11:14:09.010Z,149306.22
2022-07-30T11:16:37.112Z,149292.72
2022-07-30T11:19:55.190Z,149349.13
2022-07-30T11:22:31.302Z,149309.91
2022-07-30T11:25:00.324Z,149290.28
2022-07-30T11:27:37.129Z,149281.69
2022-07-30T11:30:26.004Z,149397.00
2022-07-30T11:32:57.250Z,149339.34
2022-07-30T11:35:34.506Z,149287.81
2022-07-30T11:38:09.394Z,149363.91
2022-07-30T11:40:40.234Z,149473.13
2022-07-30T11:43:17.030Z,149432.66
2022-07-30T11:45:48.739Z,149496.44
2022-07-30T11:48:18.339Z,149368.81
2022-07-30T11:50:47.199Z,149284.13
2022-07-30T11:53:17.867Z,149263.31
2022-07-30T11:55:51.023Z,149232.56
2022-07-30T11:58:39.681Z,149206.84
2022-07-30T12:01:12.717Z,149101.38
2022-07-30T12:03:45.381Z,149165.09
2022-07-30T12:06:17.957Z,149334.44
2022-07-30T12:08:49.611Z,149465.78
2022-07-30T12:11:16.635Z,149474.38
2022-07-30T12:13:54.552Z,149479.28
2022-07-30T12:16:21.791Z,149478.03
2022-07-30T12:18:48.902Z,149441.22
2022-07-30T12:21:16.465Z,149474.38
2022-07-30T12:23:56.565Z,149554.13
2022-07-30T12:26:26.658Z,149485.41
2022-07-30T12:28:56.444Z,149361.41
2022-07-30T12:31:24.050Z,149441.22
2022-07-30T12:33:51.196Z,149415.47
2022-07-30T12:36:31.038Z,149469.47
2022-07-30T12:38:59.503Z,149452.28
2022-07-30T12:41:43.108Z,149424.06
2022-07-30T12:44:10.224Z,149373.72
2022-07-30T12:46:40.653Z,149437.56
2022-07-30T12:49:21.284Z,149430.19
2022-07-30T12:52:00.114Z,149469.47
2022-07-30T12:54:27.838Z,149437.56
2022-07-30T12:56:59.515Z,149495.22
2022-07-30T12:59:27.551Z,149552.91
2022-07-30T13:01:57.089Z,149535.72
2022-07-30T13:04:24.685Z,149573.75
2022-07-30T13:07:09.071Z,149625.34
2022-07-30T13:09:36.718Z,149700.28
2022-07-30T13:12:04.418Z,149606.94
2022-07-30T13:14:31.642Z,149482.97
2022-07-30T13:16:58.851Z,149546.75
2022-07-30T13:19:26.661Z,149559.03
2022-07-30T13:21:53.833Z,149624.13
2022-07-30T13:24:21.166Z,149603.28
2022-07-30T13:27:01.163Z,149638.84
2022-07-30T13:29:28.264Z,149611.84
2022-07-30T13:31:55.420Z,149524.69
2022-07-30T13:34:22.513Z,149565.16
2022-07-30T13:36:49.586Z,149560.25
2022-07-30T13:39:16.760Z,149660.97
2022-07-30T13:41:43.797Z,149681.84
2022-07-30T13:44:10.842Z,149631.53
2022-07-30T13:46:41.060Z,149538.16
2022-07-30T13:49:08.481Z,149501.38
2022-07-30T13:51:35.599Z,149441.22
2022-07-30T13:54:02.897Z,149581.19
2022-07-30T13:56:29.892Z,149518.53
2022-07-30T13:58:56.961Z,149535.72
2022-07-30T14:01:24.063Z,149521.00
2022-07-30T14:03:51.233Z,149506.28
2022-07-30T14:06:19.082Z,149518.53
2022-07-30T14:08:46.249Z,149420.38
2022-07-30T14:11:13.613Z,149454.72
2022-07-30T14:13:40.772Z,149549.22
2022-07-30T14:16:28.489Z,149599.59
2022-07-30T14:18:57.312Z,149620.44
2022-07-30T14:21:25.013Z,149726.03
2022-07-30T14:23:52.057Z,149842.75
2022-07-30T14:26:19.131Z,149744.50
2022-07-30T14:28:46.205Z,149695.38
2022-07-30T14:31:13.205Z,149670.78
2022-07-30T14:33:40.256Z,149595.91
2022-07-30T14:36:07.391Z,149616.81
2022-07-30T14:38:34.409Z,149678.16
2022-07-30T14:41:01.459Z,149702.69
2022-07-30T14:43:28.489Z,149647.47
2022-07-30T14:45:55.490Z,149681.84
2022-07-30T14:48:22.503Z,149739.59
2022-07-30T14:51:12.129Z,149799.75
2022-07-30T14:53:37.574Z,149808.34
2022-07-30T14:56:04.799Z,149842.75
2022-07-30T14:58:31.846Z,149826.78
2022-07-30T15:00:59.727Z,149755.56
2022-07-30T15:03:44.462Z,149837.84
2022-07-30T15:06:12.894Z,149813.25
2022-07-30T15:08:39.989Z,149916.50
2022-07-30T15:11:08.197Z,150018.47
2022-07-30T15:13:37.130Z,150147.53
2022-07-30T15:16:16.684Z,150135.22
2022-07-30T15:18:43.691Z,150115.59
2022-07-30T15:21:12.364Z,149986.53
2022-07-30T15:23:39.400Z,149993.88
2022-07-30T15:26:06.608Z,150046.78
2022-07-30T15:28:33.665Z,150102.06
2022-07-30T15:31:00.892Z,150105.75
2022-07-30T15:33:27.901Z,150180.72
2022-07-30T15:35:54.900Z,150056.59
2022-07-30T15:38:23.129Z,149990.22
2022-07-30T15:40:50.281Z,149850.09
2022-07-30T15:43:17.293Z,149877.13
2022-07-30T15:45:55.266Z,149732.19
2022-07-30T15:48:26.882Z,149813.25
2022-07-30T15:51:00.709Z,149875.91
2022-07-30T15:53:27.737Z,149862.41
2022-07-30T15:55:54.738Z,149923.84
2022-07-30T15:58:22.039Z,150016.00
2022-07-30T16:00:49.439Z,150113.09
2022-07-30T16:03:16.543Z,150245.91
2022-07-30T16:05:52.027Z,150204.09
2022-07-30T16:08:20.750Z,150157.38
2022-07-30T16:10:49.060Z,150062.72
2022-07-30T16:13:16.209Z,150034.41
2022-07-30T16:15:43.354Z,149958.28
2022-07-30T16:18:10.452Z,150000.03
2022-07-30T16:20:37.510Z,149931.25
2022-07-30T16:23:07.051Z,149936.16
2022-07-30T16:25:37.461Z,150090.97
2022-07-30T16:28:04.613Z,150122.94
2022-07-30T16:30:31.628Z,150248.38
2022-07-30T16:32:58.645Z,150285.25
2022-07-30T16:35:25.721Z,150467.25
2022-07-30T16:37:54.097Z,150486.97
2022-07-30T16:40:21.312Z,150819.22
2022-07-30T16:42:48.371Z,150804.44
2022-07-30T16:45:15.375Z,150509.09
2022-07-30T16:47:42.459Z,150218.84
2022-07-30T16:50:10.090Z,150122.94
2022-07-30T16:52:37.125Z,149982.81
2022-07-30T16:55:04.439Z,150140.16
2022-07-30T16:57:31.470Z,150201.63
2022-07-30T16:59:58.625Z,150509.09
2022-07-30T17:02:25.633Z,150969.44
2022-07-30T17:04:52.761Z,151071.66
2022-07-30T17:07:19.851Z,151028.59
2022-07-30T17:09:51.919Z,150718.25
2022-07-30T17:12:25.467Z,150715.81
2022-07-30T17:14:54.328Z,150521.41
2022-07-30T17:17:21.334Z,150309.81
2022-07-30T17:19:48.457Z,150147.53
2022-07-30T17:22:15.799Z,150016.00
2022-07-30T17:24:42.892Z,149900.50
2022-07-30T17:27:09.908Z,149733.41
2022-07-30T17:29:48.394Z,149687.97
2022-07-30T17:32:19.269Z,149624.13
2022-07-30T17:34:47.296Z,149494.00
2022-07-30T17:37:14.668Z,149431.41
2022-07-30T17:40:28.542Z,149359.00
2022-07-30T17:42:28.846Z,149366.31
2022-07-30T17:44:56.018Z,149437.56
2022-07-30T17:47:23.248Z,149746.97
2022-07-30T17:49:50.338Z,150272.94
2022-07-30T17:52:17.472Z,150445.09
2022-07-30T17:54:44.488Z,150170.88
2022-07-30T17:57:13.096Z,149961.91
2022-07-30T17:59:40.138Z,149781.34
2022-07-30T18:02:07.363Z,149727.28
2022-07-30T18:04:34.766Z,149610.63
2022-07-30T18:07:02.633Z,149578.72
2022-07-30T18:09:31.143Z,149555.34
2022-07-30T18:12:06.569Z,149403.13
2022-07-30T18:14:33.854Z,149527.13
2022-07-30T18:17:03.470Z,149448.59
2022-07-30T18:19:30.685Z,149397.00
2022-07-30T18:21:57.839Z,149388.41
2022-07-30T18:24:29.362Z,149374.91
2022-07-30T18:26:56.366Z,149322.19
2022-07-30T18:29:23.489Z,149336.91
2022-07-30T18:31:50.496Z,149263.31
2022-07-30T18:34:17.546Z,149295.19
2022-07-30T18:36:44.646Z,149292.72
2022-07-30T18:39:11.646Z,149267.00
2022-07-30T18:41:38.653Z,149258.41
2022-07-30T18:44:05.674Z,149197.00
2022-07-30T18:46:32.704Z,149159.00
2022-07-30T18:49:10.843Z,149132.00
2022-07-30T18:51:47.343Z,149022.88
2022-07-30T18:54:15.909Z,149030.19
2022-07-30T18:56:42.949Z,148971.34
2022-07-30T18:59:10.043Z,148966.44
2022-07-30T19:01:39.067Z,148939.47
2022-07-30T19:04:06.507Z,148901.44
2022-07-30T19:06:33.648Z,148891.66
2022-07-30T19:09:00.679Z,148885.53
2022-07-30T19:11:27.684Z,148880.66
2022-07-30T19:13:54.706Z,148852.41
2022-07-30T19:16:21.777Z,148873.28
2022-07-30T19:18:48.797Z,148843.88
2022-07-30T19:21:15.924Z,148829.13
2022-07-30T19:23:42.906Z,148829.13
2022-07-30T19:26:10.020Z,148821.81
2022-07-30T19:28:38.031Z,148809.53
2022-07-30T19:31:05.077Z,148792.38
2022-07-30T19:33:32.069Z,148763.00
2022-07-30T19:35:59.117Z,148787.47
2022-07-30T19:38:26.121Z,148743.41
2022-07-30T19:40:53.125Z,148701.72
2022-07-30T19:43:23.758Z,148699.22
2022-07-30T19:45:52.369Z,148684.53
2022-07-30T19:48:29.662Z,148664.97
2022-07-30T19:50:59.594Z,148635.53
2022-07-30T19:53:31.559Z,148635.53
2022-07-30T19:56:04.484Z,148638.00
2022-07-30T19:58:36.605Z,148651.47
2022-07-30T20:01:08.523Z,148633.09
2022-07-30T20:03:36.334Z,148620.84
2022-07-30T20:06:07.533Z,148618.41
2022-07-30T20:08:36.050Z,148591.47
2022-07-30T20:11:05.916Z,148536.31
2022-07-30T20:13:45.370Z,148580.41
2022-07-30T20:16:15.472Z,148584.09
2022-07-30T20:18:44.424Z,148552.25
2022-07-30T20:21:15.676Z,148500.78
2022-07-30T20:23:44.796Z,148442.03
2022-07-30T20:26:14.132Z,148439.59
2022-07-30T20:28:43.830Z,148454.28
2022-07-30T20:31:13.175Z,148434.69
2022-07-30T20:33:40.793Z,148410.19
2022-07-30T20:36:09.819Z,148426.13
2022-07-30T20:38:38.937Z,148427.34
2022-07-30T20:41:09.959Z,148388.16
2022-07-30T20:43:46.172Z,148367.38
2022-07-30T20:46:20.493Z,148363.69
2022-07-30T20:48:50.829Z,148312.22
2022-07-30T20:51:17.989Z,148356.31
2022-07-30T20:53:45.739Z,148324.50
2022-07-30T20:56:14.904Z,148319.56
2022-07-30T20:58:46.100Z,148285.31
2022-07-30T21:01:17.460Z,148304.88
2022-07-30T21:03:47.847Z,148326.91
2022-07-30T21:06:16.505Z,148280.41
2022-07-30T21:08:43.768Z,148251.06
2022-07-30T21:11:12.724Z,148221.66
2022-07-30T21:13:41.962Z,148213.09
2022-07-30T21:16:15.825Z,148229.03
2022-07-30T21:18:49.298Z,148194.75
2022-07-30T21:21:28.928Z,148177.66
2022-07-30T21:24:05.783Z,148133.53
2022-07-30T21:26:41.408Z,148165.41
2022-07-30T21:29:09.143Z,148156.84
2022-07-30T21:32:01.680Z,148167.81
2022-07-30T21:34:26.381Z,148158.03
2022-07-30T21:36:54.499Z,148140.91
2022-07-30T21:39:28.661Z,148149.47
2022-07-30T21:41:56.564Z,148153.16
2022-07-30T21:44:23.854Z,148158.03
2022-07-30T21:46:50.925Z,148128.66
2022-07-30T21:49:18.226Z,148132.34
2022-07-30T21:51:46.436Z,148098.06
2022-07-30T21:54:17.040Z,148083.38
2022-07-30T21:56:53.509Z,148111.53
2022-07-30T21:59:23.399Z,148149.47
2022-07-30T22:01:50.696Z,148126.19
2022-07-30T22:04:22.365Z,148033.25
2022-07-30T22:06:49.433Z,148099.31
2022-07-30T22:09:19.133Z,148096.84
2022-07-30T22:12:00.709Z,148089.50
2022-07-30T22:14:29.110Z,148109.09
2022-07-30T22:16:56.818Z,148107.84
2022-07-30T22:19:25.795Z,148039.34
2022-07-30T22:21:53.150Z,148054.06
2022-07-30T22:24:29.784Z,148095.63
2022-07-30T22:27:01.304Z,148078.50
2022-07-30T22:29:34.463Z,148094.38
2022-07-30T22:32:04.032Z,148061.38
2022-07-30T22:34:32.400Z,148029.56
2022-07-30T22:36:59.466Z,147947.63
2022-07-30T22:42:13.805Z,147981.88
2022-07-30T22:44:45.891Z,147884.03
2022-07-30T22:47:21.127Z,147984.31
2022-07-30T22:50:03.147Z,147969.66
2022-07-30T22:52:37.065Z,147947.63
2022-07-30T22:55:09.157Z,147946.41
2022-07-30T22:57:38.044Z,147934.16
2022-07-30T23:00:11.734Z,147945.22
2022-07-30T23:02:40.162Z,147937.84
2022-07-30T23:05:08.833Z,147972.13
2022-07-30T23:07:38.863Z,147901.13
2022-07-30T23:10:17.281Z,147947.63
2022-07-30T23:12:29.024Z,147984.31
2022-07-30T23:12:48.823Z,147974.53
2022-07-30T23:15:16.357Z,147881.56
2022-07-30T23:17:43.891Z,147945.22
2022-07-30T23:20:14.860Z,147925.59
2022-07-30T23:22:42.190Z,147944.00
2022-07-30T23:25:10.891Z,147923.16
2022-07-30T23:27:39.201Z,147910.91
2022-07-30T23:30:10.922Z,147915.84
2022-07-30T23:32:39.823Z,147913.38
2022-07-30T23:35:08.885Z,147906.00
2022-07-30T23:37:47.819Z,147891.34
2022-07-30T23:40:19.150Z,147914.56
2022-07-30T23:42:47.504Z,147895.03
2022-07-30T23:45:14.673Z,147893.81
2022-07-30T23:48:00.219Z,147871.81
2022-07-30T23:50:33.162Z,147865.72
2022-07-30T23:53:01.796Z,147866.91
2022-07-30T23:55:30.285Z,147847.38
2022-07-30T23:57:58.060Z,147869.34
